Cape Coral, FL (33914)

2:53 AM EDT on September 05, 2015 (GMT -0400)
Cape Coral Pkwy, Skyline Blvd | | Change Station
CLOSE
Current Station
Personal Weather Station
Location: Cape Coral, FL
Elevation: 18 ft
Nearby Weather Stations

Elev 18 ft 26.57 °N, 82.00 °W | Updated 2 minutes ago

Partly Cloudy
Partly Cloudy
76.4 °F
Feels Like 77 °F
N
0.0
Wind Variable Wind from ESE
Gusts 0.0 mph

Today
High -- | Low -- °F
--% Chance of Precip.
Yesterday
High -- | Low -- °F
Precip. -- in
7:09 AM 7:43 PM
Waning Gibbous, 51% visible
Pressure 29.97 in
Visibility 10.0 miles
Clouds Clear
Heat Index 77 °F
Dew Point 73 °F
Humidity 89%
Rainfall 0.00 in
Snow Depth Not available.
UV 0 out of 12
Pollen 4.30 out of 12
Air Quality Not available.
Flu Activity Not available.
METAR KFMY 050553Z AUTO 08003KT 10SM CLR 24/24 A2996 RMK AO2 SLP147 60000 T02440239 10300 20244 58002
Pressure 29.97 in
Visibility 10.0 miles
Clouds Clear
Heat Index 77 °F
Dew Point 73 °F
Humidity 89%
Rainfall 0.00 in
Snow Depth Not available.
UV 0 out of 12
Pollen 4.30 out of 12
Air Quality Not available.
Flu Activity Not available.
METAR KFMY 050553Z AUTO 08003KT 10SM CLR 24/24 A2996 RMK AO2 SLP147 60000 T02440239 10300 20244 58002

10-Day Weather Forecast

×

Almanac

Astronomy

Sep. 05, 2015 Rise Set
Actual Time
Civil Twilight
Nautical Twilight
Astronomical Twilight
Moon
Length of Visible Light
Length of Day
Tomorrow will be .
, % of the Moon is Illuminated

Today's Extremes

State Highs State Lows

Community

WunderPhotos

Upload Photos

1,852,430 photos uploaded!

WunderBlogs® & News

Nearby

Air Quality

  Air Quality AQ Index Pollutant
Not available.

Snow Depth

Station Depth Elevation

Earthquake Activity

City Distance Mag. Time & Date
Minimum magnitude displayed is 2.5.

Coastal Water Temperatures

Place Temperature

Stations

Nearby Weather Stations

Station Location Temp. Windchill Dew Point Humidity Wind Precip. Elev Updated Type